createdAt,value
2018-04-26T00:00:52.895Z,10.00
2018-04-26T00:03:21.677Z,10.00
2018-04-26T00:05:55.689Z,10.00
2018-04-26T00:08:22.737Z,10.00
2018-04-26T00:10:53.375Z,9.90
2018-04-26T00:13:22.322Z,9.90
2018-04-26T00:15:49.315Z,9.80
2018-04-26T00:18:15.557Z,9.80
2018-04-26T00:20:42.633Z,9.80
2018-04-26T00:23:09.009Z,9.80
2018-04-26T00:25:37.456Z,9.80
2018-04-26T00:28:03.701Z,9.80
2018-04-26T00:30:29.927Z,9.80
2018-04-26T00:32:56.154Z,9.80
2018-04-26T00:35:23.937Z,9.60
2018-04-26T00:37:50.223Z,9.60
2018-04-26T00:40:16.462Z,9.70
2018-04-26T00:42:43.262Z,9.70
2018-04-26T00:45:10.331Z,9.70
2018-04-26T00:47:37.356Z,9.70
2018-04-26T00:50:03.586Z,9.60
2018-04-26T00:52:29.836Z,9.60
2018-04-26T00:54:56.060Z,9.60
2018-04-26T00:57:23.307Z,9.60
2018-04-26T00:59:50.360Z,9.50
2018-04-26T01:02:16.652Z,9.50
2018-04-26T01:04:43.080Z,9.60
2018-04-26T01:07:09.348Z,9.70
2018-04-26T01:09:35.556Z,9.60
2018-04-26T01:12:01.959Z,9.60
2018-04-26T01:14:28.188Z,9.60
2018-04-26T01:16:54.433Z,9.70
2018-04-26T01:19:23.041Z,9.60
2018-04-26T01:21:50.129Z,9.60
2018-04-26T01:24:16.418Z,9.60
2018-04-26T01:26:42.734Z,9.70
2018-04-26T01:29:08.984Z,9.80
2018-04-26T01:31:35.296Z,9.80
2018-04-26T01:34:01.528Z,9.70
2018-04-26T01:36:40.217Z,9.80
2018-04-26T01:39:06.456Z,9.80
2018-04-26T01:41:32.711Z,9.80
2018-04-26T01:43:58.907Z,9.90
2018-04-26T01:46:25.214Z,9.90
2018-04-26T01:48:51.633Z,9.90
2018-04-26T01:51:17.884Z,9.90
2018-04-26T01:53:44.163Z,9.90
2018-04-26T01:56:10.460Z,9.90
2018-04-26T01:58:36.684Z,9.90
2018-04-26T02:01:02.948Z,9.90
2018-04-26T02:03:29.289Z,9.90
2018-04-26T02:05:56.437Z,9.90
2018-04-26T02:08:24.625Z,9.90
2018-04-26T02:10:52.140Z,9.90
2018-04-26T02:13:18.348Z,9.90
2018-04-26T02:15:44.612Z,9.90
2018-04-26T02:18:11.593Z,9.90
2018-04-26T02:20:38.590Z,9.90
2018-04-26T02:23:04.920Z,9.90
2018-04-26T02:25:31.412Z,9.90
2018-04-26T02:27:57.696Z,9.90
2018-04-26T02:30:23.968Z,9.90
2018-04-26T02:32:50.281Z,9.90
2018-04-26T02:35:16.534Z,9.90
2018-04-26T02:37:42.843Z,9.90
2018-04-26T02:40:10.352Z,9.90
2018-04-26T02:42:36.654Z,9.80
2018-04-26T02:45:03.919Z,9.80
2018-04-26T02:47:30.205Z,9.80
2018-04-26T02:49:56.472Z,9.80
2018-04-26T02:52:22.752Z,9.80
2018-04-26T02:54:49.765Z,9.90
2018-04-26T02:57:16.014Z,9.80
2018-04-26T02:59:42.266Z,9.90
2018-04-26T03:02:08.573Z,9.90
2018-04-26T03:04:35.578Z,9.90
2018-04-26T03:07:01.813Z,9.90
2018-04-26T03:09:28.044Z,9.90
2018-04-26T03:11:54.378Z,9.90
2018-04-26T03:14:20.609Z,9.80
2018-04-26T03:16:46.825Z,9.90
2018-04-26T03:19:13.157Z,9.80
2018-04-26T03:21:39.465Z,9.80
2018-04-26T03:24:05.833Z,9.80
2018-04-26T03:26:32.167Z,9.90
2018-04-26T03:28:58.417Z,9.80
2018-04-26T03:31:24.698Z,9.90
2018-04-26T03:33:50.947Z,9.90
2018-04-26T03:36:17.246Z,9.80
2018-04-26T03:38:43.717Z,9.80
2018-04-26T03:41:10.056Z,9.80
2018-04-26T03:43:37.076Z,9.80
2018-04-26T03:46:03.338Z,9.80
2018-04-26T03:48:29.538Z,9.80
2018-04-26T03:50:55.776Z,9.80
2018-04-26T03:53:23.491Z,9.80
2018-04-26T03:55:49.825Z,9.80
2018-04-26T03:58:16.185Z,9.80
2018-04-26T04:00:56.515Z,9.80
2018-04-26T04:03:34.967Z,9.80
2018-04-26T04:06:13.227Z,9.80
2018-04-26T04:08:39.479Z,9.70
2018-04-26T04:11:05.739Z,9.80
2018-04-26T04:13:32.065Z,9.80
2018-04-26T04:15:58.298Z,9.80
2018-04-26T04:18:25.346Z,9.80
2018-04-26T04:20:51.632Z,9.70
2018-04-26T04:23:17.937Z,9.80
2018-04-26T04:25:44.205Z,9.70
2018-04-26T04:28:10.414Z,9.80
2018-04-26T04:30:36.674Z,9.80
2018-04-26T04:33:03.861Z,9.80
2018-04-26T04:35:31.102Z,9.80
2018-04-26T04:37:57.603Z,9.80
2018-04-26T04:40:23.944Z,9.80
2018-04-26T04:42:50.264Z,9.80
2018-04-26T04:45:16.762Z,9.80
2018-04-26T04:47:43.024Z,9.70
2018-04-26T04:50:09.331Z,9.80
2018-04-26T04:52:35.740Z,9.70
2018-04-26T04:55:02.032Z,9.70
2018-04-26T04:57:28.391Z,9.80
2018-04-26T04:59:54.813Z,9.80
2018-04-26T05:02:21.867Z,9.70
2018-04-26T05:04:48.148Z,9.70
2018-04-26T05:07:14.419Z,9.70
2018-04-26T05:09:40.687Z,9.80
2018-04-26T05:12:06.982Z,9.70
2018-04-26T05:14:34.435Z,9.70
2018-04-26T05:17:00.821Z,9.70
2018-04-26T05:19:27.202Z,9.70
2018-04-26T05:21:53.420Z,9.60
2018-04-26T05:24:20.484Z,9.60
2018-04-26T05:26:47.476Z,9.50
2018-04-26T05:29:13.731Z,9.50
2018-04-26T05:31:39.996Z,9.60
2018-04-26T05:34:06.257Z,9.60
2018-04-26T05:36:32.551Z,9.50
2018-04-26T05:38:58.895Z,9.50
2018-04-26T05:41:25.154Z,9.40
2018-04-26T05:43:51.401Z,9.50
2018-04-26T05:46:17.679Z,9.50
2018-04-26T05:48:43.917Z,9.50
2018-04-26T05:51:10.169Z,9.50
2018-04-26T05:53:37.670Z,9.60
2018-04-26T05:56:04.221Z,9.50
2018-04-26T05:58:31.451Z,9.60
2018-04-26T06:00:58.464Z,9.50
2018-04-26T06:03:24.785Z,9.60
2018-04-26T06:05:51.701Z,9.80
2018-04-26T06:08:17.943Z,9.80
2018-04-26T06:10:45.763Z,9.70
2018-04-26T06:13:11.992Z,9.60
2018-04-26T06:15:38.448Z,9.30
2018-04-26T06:18:04.825Z,9.50
2018-04-26T06:20:31.840Z,9.40
2018-04-26T06:22:58.130Z,9.30
2018-04-26T06:25:25.076Z,9.40
2018-04-26T06:27:51.335Z,9.40
2018-04-26T06:30:17.579Z,9.80
2018-04-26T06:32:43.916Z,9.80
2018-04-26T06:35:10.261Z,9.80
2018-04-26T06:37:36.721Z,9.80
2018-04-26T06:40:03.773Z,9.70
2018-04-26T06:42:30.028Z,9.70
2018-04-26T06:44:56.297Z,9.70
2018-04-26T06:47:22.604Z,9.80
2018-04-26T06:49:48.913Z,9.90
2018-04-26T06:52:15.943Z,9.80
2018-04-26T06:54:42.291Z,9.80
2018-04-26T06:57:08.697Z,9.80
2018-04-26T06:59:35.700Z,9.80
2018-04-26T07:02:01.934Z,9.70
2018-04-26T07:04:28.199Z,9.90
2018-04-26T07:06:54.460Z,10.00
2018-04-26T07:09:20.759Z,10.10
2018-04-26T07:11:47.943Z,10.20
2018-04-26T07:14:14.342Z,10.20
2018-04-26T07:16:41.425Z,10.40
2018-04-26T07:19:07.690Z,10.40
2018-04-26T07:21:33.939Z,10.50
2018-04-26T07:24:00.276Z,10.50
2018-04-26T07:26:27.288Z,13.50
2018-04-26T07:28:53.603Z,13.40
2018-04-26T07:31:20.145Z,14.70
2018-04-26T07:33:46.491Z,15.30
2018-04-26T07:36:12.711Z,14.60
2018-04-26T07:38:38.945Z,14.90
2018-04-26T07:41:05.313Z,15.90
2018-04-26T07:43:32.274Z,14.40
2018-04-26T07:45:59.303Z,13.50
2018-04-26T07:48:26.420Z,13.00
2018-04-26T07:50:53.346Z,12.90
2018-04-26T07:53:19.751Z,13.80
2018-04-26T07:55:47.265Z,16.50
2018-04-26T07:58:13.504Z,16.40
2018-04-26T08:00:39.724Z,15.90
2018-04-26T08:03:06.716Z,15.60
2018-04-26T08:05:32.952Z,15.70
2018-04-26T08:07:59.283Z,15.30
2018-04-26T08:10:25.679Z,14.50
2018-04-26T08:12:52.003Z,13.80
2018-04-26T08:15:18.289Z,14.20
2018-04-26T08:17:44.595Z,14.60
2018-04-26T08:20:10.827Z,15.20
2018-04-26T08:22:37.058Z,14.90
2018-04-26T08:25:03.454Z,14.80
2018-04-26T08:27:29.855Z,13.90
2018-04-26T08:29:56.280Z,13.40
2018-04-26T08:32:22.588Z,13.60
2018-04-26T08:34:48.802Z,13.60
2018-04-26T08:37:15.063Z,13.30
2018-04-26T08:39:41.308Z,13.00
2018-04-26T08:42:08.337Z,12.90
2018-04-26T08:44:34.933Z,12.90
2018-04-26T08:47:02.052Z,12.80
2018-04-26T08:49:29.532Z,13.00
2018-04-26T08:51:55.892Z,14.40
2018-04-26T08:54:22.158Z,14.80
2018-04-26T08:56:49.161Z,15.60
2018-04-26T08:59:15.397Z,15.60
2018-04-26T09:01:41.747Z,16.20
2018-04-26T09:04:08.760Z,17.20
2018-04-26T09:06:35.085Z,17.20
2018-04-26T09:09:01.562Z,18.20
2018-04-26T09:11:28.536Z,18.90
2018-04-26T09:13:55.535Z,18.10
2018-04-26T09:16:21.739Z,18.10
2018-04-26T09:18:47.981Z,18.00
2018-04-26T09:21:15.193Z,18.40
2018-04-26T09:23:41.421Z,18.40
2018-04-26T09:26:07.806Z,17.20
2018-04-26T09:28:34.855Z,16.40
2018-04-26T09:31:02.309Z,16.30
2018-04-26T09:33:28.541Z,16.30
2018-04-26T09:35:54.853Z,16.20
2018-04-26T09:38:21.850Z,16.10
2018-04-26T09:40:48.825Z,15.70
2018-04-26T09:43:15.116Z,15.70
2018-04-26T09:45:42.840Z,17.10
2018-04-26T09:48:09.148Z,17.10
2018-04-26T09:50:36.232Z,16.40
2018-04-26T09:53:03.267Z,16.20
2018-04-26T09:55:29.644Z,16.20
2018-04-26T09:57:55.864Z,16.70
2018-04-26T10:00:27.093Z,16.40
2018-04-26T10:02:53.575Z,15.60
2018-04-26T10:05:19.845Z,15.70
2018-04-26T10:07:47.363Z,15.20
2018-04-26T10:10:13.718Z,15.20
2018-04-26T10:12:41.497Z,15.00
2018-04-26T10:15:07.791Z,15.00
2018-04-26T10:17:34.212Z,15.00
2018-04-26T10:20:00.457Z,14.90
2018-04-26T10:22:26.680Z,14.50
2018-04-26T10:24:53.005Z,15.10
2018-04-26T10:27:19.279Z,15.50
2018-04-26T10:29:45.624Z,15.90
2018-04-26T10:32:11.980Z,15.30
2018-04-26T10:34:38.231Z,15.40
2018-04-26T10:37:04.448Z,15.40
2018-04-26T10:39:30.660Z,15.00
2018-04-26T10:41:56.903Z,14.80
2018-04-26T10:44:24.948Z,14.80
2018-04-26T10:46:51.381Z,15.30
2018-04-26T10:49:18.432Z,15.10
2018-04-26T10:51:44.720Z,15.10
2018-04-26T10:54:10.970Z,15.00
2018-04-26T10:56:37.224Z,15.40
2018-04-26T10:59:03.448Z,15.10
2018-04-26T11:01:29.690Z,15.60
2018-04-26T11:03:56.000Z,15.40
2018-04-26T11:06:22.298Z,15.70
2018-04-26T11:08:48.549Z,16.00
2018-04-26T11:11:15.520Z,15.80
2018-04-26T11:13:41.737Z,15.80
2018-04-26T11:16:08.055Z,15.80
2018-04-26T11:18:35.072Z,15.70
2018-04-26T11:21:01.284Z,15.70
2018-04-26T11:23:27.520Z,15.50
2018-04-26T11:25:53.922Z,15.50
2018-04-26T11:28:20.229Z,15.60
2018-04-26T11:30:47.201Z,16.50
2018-04-26T11:33:13.411Z,16.50
2018-04-26T11:35:39.629Z,16.30
2018-04-26T11:38:06.585Z,16.30
2018-04-26T11:40:32.898Z,16.30
2018-04-26T11:42:59.217Z,16.70
2018-04-26T11:45:26.305Z,16.80
2018-04-26T11:47:52.614Z,16.70
2018-04-26T11:50:18.836Z,16.80
2018-04-26T11:52:45.086Z,16.40
2018-04-26T11:55:11.348Z,16.40
2018-04-26T11:57:37.601Z,16.60
2018-04-26T12:00:03.953Z,17.20
2018-04-26T12:02:31.089Z,16.80
2018-04-26T12:04:58.393Z,16.70
2018-04-26T12:07:24.725Z,16.60
2018-04-26T12:09:50.988Z,17.30
2018-04-26T12:12:17.204Z,17.00
2018-04-26T12:14:43.478Z,17.00
2018-04-26T12:17:09.849Z,16.70
2018-04-26T12:19:36.663Z,16.60
2018-04-26T12:22:03.777Z,16.60
2018-04-26T12:24:30.177Z,16.80
2018-04-26T12:26:56.404Z,17.00
2018-04-26T12:29:22.618Z,17.10
2018-04-26T12:31:49.641Z,17.30
2018-04-26T12:34:15.958Z,17.30
2018-04-26T12:36:42.188Z,16.90
2018-04-26T12:39:08.869Z,17.10
2018-04-26T12:41:35.913Z,17.40
2018-04-26T12:44:02.491Z,17.40
2018-04-26T12:46:29.488Z,16.80
2018-04-26T12:48:55.794Z,16.70
2018-04-26T12:51:22.069Z,17.00
2018-04-26T12:53:48.268Z,16.90
2018-04-26T12:56:14.547Z,17.20
2018-04-26T12:58:40.800Z,17.60
2018-04-26T13:01:07.069Z,17.00
2018-04-26T13:03:33.350Z,16.20
2018-04-26T13:05:59.659Z,15.80
2018-04-26T13:08:25.969Z,16.10
2018-04-26T13:10:52.188Z,16.00
2018-04-26T13:13:18.501Z,15.90
2018-04-26T13:15:44.773Z,15.70
2018-04-26T13:18:10.996Z,15.50
2018-04-26T13:20:37.251Z,15.60
2018-04-26T13:23:03.499Z,15.20
2018-04-26T13:25:29.785Z,15.50
2018-04-26T13:27:56.006Z,15.10
2018-04-26T13:30:22.241Z,15.60
2018-04-26T13:32:48.577Z,15.70
2018-04-26T13:35:15.524Z,14.80
2018-04-26T13:37:42.546Z,13.90
2018-04-26T13:40:08.803Z,13.90
2018-04-26T13:42:37.019Z,14.20
2018-04-26T13:45:03.293Z,14.20
2018-04-26T13:47:30.273Z,14.30
2018-04-26T13:49:56.529Z,14.30
2018-04-26T13:52:22.782Z,14.60
2018-04-26T13:54:49.021Z,14.80
2018-04-26T13:57:15.329Z,15.00
2018-04-26T13:59:41.591Z,15.10
2018-04-26T14:02:07.920Z,15.00
2018-04-26T14:04:34.964Z,15.00
2018-04-26T14:07:01.982Z,15.00
2018-04-26T14:09:28.314Z,15.10
2018-04-26T14:11:55.336Z,15.10
2018-04-26T14:14:21.594Z,15.10
2018-04-26T14:16:49.954Z,15.40
2018-04-26T14:19:16.418Z,15.50
2018-04-26T14:21:43.476Z,15.00
2018-04-26T14:24:10.522Z,15.00
2018-04-26T14:26:37.500Z,15.20
2018-04-26T14:29:03.809Z,15.20
2018-04-26T14:31:30.945Z,15.10
2018-04-26T14:33:58.390Z,15.20
2018-04-26T14:36:25.386Z,15.20
2018-04-26T14:38:51.699Z,15.20
2018-04-26T14:41:18.119Z,15.10
2018-04-26T14:43:44.416Z,15.00
2018-04-26T14:46:12.243Z,15.10
2018-04-26T14:48:38.467Z,15.10
2018-04-26T14:51:04.730Z,15.50
2018-04-26T14:53:30.955Z,15.50
2018-04-26T14:55:57.180Z,15.50
2018-04-26T14:58:23.427Z,15.30
2018-04-26T15:00:49.735Z,15.40
2018-04-26T15:03:16.173Z,15.20
2018-04-26T15:05:42.413Z,15.00
2018-04-26T15:08:08.665Z,15.00
2018-04-26T15:10:35.674Z,15.10
2018-04-26T15:13:01.873Z,15.10
2018-04-26T15:15:28.194Z,15.10
2018-04-26T15:17:55.875Z,15.20
2018-04-26T15:20:22.152Z,15.20
2018-04-26T15:22:54.505Z,15.40
2018-04-26T15:25:20.852Z,15.40
2018-04-26T15:27:47.095Z,15.10
2018-04-26T15:30:13.384Z,15.00
2018-04-26T15:32:39.596Z,14.90
2018-04-26T15:35:05.871Z,14.50
2018-04-26T15:37:32.131Z,14.50
2018-04-26T15:39:58.482Z,14.60
2018-04-26T15:42:24.765Z,14.90
2018-04-26T15:44:51.720Z,15.10
2018-04-26T15:47:18.650Z,15.10
2018-04-26T15:49:45.647Z,15.20
2018-04-26T15:52:11.905Z,15.10
2018-04-26T15:54:50.528Z,15.10
2018-04-26T15:57:33.056Z,15.00
2018-04-26T16:00:11.481Z,14.80
2018-04-26T16:02:57.085Z,14.80
2018-04-26T16:05:35.693Z,14.90
2018-04-26T16:08:20.293Z,14.90
2018-04-26T16:11:04.941Z,14.60
2018-04-26T16:13:50.378Z,14.90
2018-04-26T16:16:35.920Z,14.70
2018-04-26T16:19:27.459Z,14.60
2018-04-26T16:22:13.171Z,14.60
2018-04-26T16:24:52.780Z,14.50
2018-04-26T16:27:37.603Z,14.70
2018-04-26T16:30:17.334Z,14.80
2018-04-26T16:33:01.977Z,14.80
2018-04-26T16:35:40.641Z,14.70
2018-04-26T16:38:20.492Z,14.60
2018-04-26T16:40:46.717Z,14.70
2018-04-26T16:43:14.021Z,14.80
2018-04-26T16:45:41.050Z,14.70
2018-04-26T16:48:08.019Z,14.60
2018-04-26T16:50:34.276Z,14.60
2018-04-26T16:53:00.507Z,13.70
2018-04-26T16:55:26.756Z,13.20
2018-04-26T16:57:53.008Z,12.80
2018-04-26T17:00:19.967Z,12.50
2018-04-26T17:02:46.218Z,12.50
2018-04-26T17:05:12.462Z,12.60
2018-04-26T17:07:38.813Z,12.70
2018-04-26T17:10:05.097Z,13.20
2018-04-26T17:12:31.309Z,13.40
2018-04-26T17:14:57.509Z,13.40
2018-04-26T17:17:23.757Z,13.60
2018-04-26T17:19:50.725Z,13.60
2018-04-26T17:22:17.112Z,13.50
2018-04-26T17:24:43.554Z,13.60
2018-04-26T17:27:10.533Z,13.70
2018-04-26T17:29:36.833Z,13.70
2018-04-26T17:32:03.917Z,13.40
2018-04-26T17:34:30.241Z,13.40
2018-04-26T17:36:57.490Z,13.40
2018-04-26T17:39:24.511Z,13.30
2018-04-26T17:41:51.501Z,13.10
2018-04-26T17:44:17.890Z,13.10
2018-04-26T17:46:44.181Z,13.10
2018-04-26T17:49:11.201Z,13.10
2018-04-26T17:51:37.397Z,13.00
2018-04-26T17:54:04.372Z,13.00
2018-04-26T17:56:30.611Z,13.00
2018-04-26T17:58:56.840Z,13.00
2018-04-26T18:01:23.068Z,12.90
2018-04-26T18:03:49.328Z,12.70
2018-04-26T18:06:16.370Z,12.70
2018-04-26T18:08:42.732Z,12.70
2018-04-26T18:11:09.032Z,12.60
2018-04-26T18:13:35.304Z,12.50
2018-04-26T18:16:01.532Z,12.50
2018-04-26T18:18:27.965Z,12.60
2018-04-26T18:20:54.230Z,12.60
2018-04-26T18:23:20.525Z,12.60
2018-04-26T18:25:46.806Z,12.60
2018-04-26T18:28:13.129Z,12.60
2018-04-26T18:30:40.153Z,12.50
2018-04-26T18:33:07.540Z,12.50
2018-04-26T18:35:35.076Z,12.60
2018-04-26T18:38:02.107Z,12.60
2018-04-26T18:40:28.315Z,12.50
2018-04-26T18:42:54.568Z,12.50
2018-04-26T18:45:20.906Z,12.50
2018-04-26T18:47:47.192Z,12.50
2018-04-26T18:50:13.589Z,12.60
2018-04-26T18:52:39.820Z,12.60
2018-04-26T18:55:06.060Z,12.50
2018-04-26T18:57:32.303Z,12.40
2018-04-26T18:59:59.260Z,12.50
2018-04-26T19:02:25.508Z,12.50
2018-04-26T19:04:51.917Z,12.60
2018-04-26T19:07:18.206Z,12.60
2018-04-26T19:09:45.165Z,12.50
2018-04-26T19:12:12.200Z,12.40
2018-04-26T19:14:39.190Z,12.40
2018-04-26T19:17:05.413Z,12.40
2018-04-26T19:19:31.690Z,12.40
2018-04-26T19:21:58.027Z,12.40
2018-04-26T19:24:24.325Z,12.40
2018-04-26T19:26:50.556Z,12.40
2018-04-26T19:29:16.772Z,12.40
2018-04-26T19:31:42.951Z,12.50
2018-04-26T19:34:09.177Z,12.50
2018-04-26T19:36:35.393Z,12.40
2018-04-26T19:39:01.734Z,12.30
2018-04-26T19:41:28.741Z,12.30
2018-04-26T19:43:55.034Z,12.30
2018-04-26T19:46:21.276Z,12.30
2018-04-26T19:48:48.019Z,12.30
2018-04-26T19:51:14.305Z,12.30
2018-04-26T19:53:41.281Z,12.30
2018-04-26T19:56:07.512Z,12.30
2018-04-26T19:58:34.526Z,12.20
2018-04-26T20:01:00.860Z,12.20
2018-04-26T20:03:27.231Z,12.20
2018-04-26T20:05:53.489Z,12.10
2018-04-26T20:08:20.366Z,12.10
2018-04-26T20:10:47.390Z,12.10
2018-04-26T20:13:13.621Z,12.00
2018-04-26T20:15:39.849Z,12.10
2018-04-26T20:18:07.594Z,11.90
2018-04-26T20:20:34.004Z,11.90
2018-04-26T20:23:00.292Z,11.90
2018-04-26T20:25:26.767Z,11.70
2018-04-26T20:27:52.998Z,11.70
2018-04-26T20:30:19.284Z,11.70
2018-04-26T20:32:45.583Z,11.70
2018-04-26T20:35:11.967Z,11.70
2018-04-26T20:37:38.178Z,11.70
2018-04-26T20:40:04.407Z,11.60
2018-04-26T20:42:30.669Z,11.60
2018-04-26T20:44:56.882Z,11.50
2018-04-26T20:47:23.145Z,11.40
2018-04-26T20:49:50.613Z,11.30
2018-04-26T20:52:16.861Z,11.30
2018-04-26T20:54:43.133Z,11.30
2018-04-26T20:57:09.396Z,11.30
2018-04-26T20:59:36.371Z,11.30
2018-04-26T21:02:03.364Z,11.20
2018-04-26T21:04:29.599Z,11.10
2018-04-26T21:06:55.937Z,11.10
2018-04-26T21:09:22.272Z,11.10
2018-04-26T21:11:49.608Z,11.00
2018-04-26T21:14:16.910Z,11.00
2018-04-26T21:16:43.829Z,10.90
2018-04-26T21:19:10.051Z,10.80
2018-04-26T21:21:36.278Z,10.70
2018-04-26T21:24:02.593Z,10.70
2018-04-26T21:26:28.936Z,10.60
2018-04-26T21:28:55.192Z,10.50
2018-04-26T21:31:22.193Z,10.50
2018-04-26T21:33:48.478Z,10.50
2018-04-26T21:36:15.466Z,10.50
2018-04-26T21:38:42.170Z,10.40
2018-04-26T21:41:08.615Z,10.50
2018-04-26T21:43:34.854Z,10.50
2018-04-26T21:46:01.087Z,10.40
2018-04-26T21:48:27.367Z,10.40
2018-04-26T21:50:59.900Z,10.40
2018-04-26T21:53:32.901Z,10.40
2018-04-26T21:56:05.365Z,10.40
2018-04-26T21:58:37.637Z,10.30
2018-04-26T22:01:10.892Z,10.20
2018-04-26T22:06:40.980Z,10.00
2018-04-26T22:09:07.960Z,10.00
2018-04-26T22:11:35.052Z,10.00
2018-04-26T22:14:01.328Z,10.00
2018-04-26T22:16:27.617Z,10.00
2018-04-26T22:18:53.874Z,9.80
2018-04-26T22:21:20.089Z,9.70
2018-04-26T22:23:47.044Z,9.60
2018-04-26T22:26:13.245Z,9.60
2018-04-26T22:28:39.483Z,9.50
2018-04-26T22:31:05.746Z,9.50
2018-04-26T22:33:32.745Z,9.40
2018-04-26T22:35:58.960Z,9.40
2018-04-26T22:38:25.184Z,9.40
2018-04-26T22:40:51.373Z,9.50
2018-04-26T22:43:17.620Z,9.50
2018-04-26T22:45:43.875Z,9.50
2018-04-26T22:48:10.142Z,9.40
2018-04-26T22:50:36.404Z,9.40
2018-04-26T22:53:02.611Z,9.40
2018-04-26T22:55:29.552Z,9.20
2018-04-26T22:57:55.777Z,9.20
2018-04-26T23:00:22.003Z,9.20
2018-04-26T23:02:48.288Z,9.10
2018-04-26T23:05:14.580Z,9.10
2018-04-26T23:07:41.560Z,9.00
2018-04-26T23:10:07.804Z,9.00
2018-04-26T23:12:34.021Z,9.00
2018-04-26T23:15:00.243Z,9.10
2018-04-26T23:17:26.454Z,9.00
2018-04-26T23:19:52.653Z,8.90
2018-04-26T23:22:19.636Z,9.00
2018-04-26T23:24:45.828Z,9.00
2018-04-26T23:27:12.103Z,9.10
2018-04-26T23:29:38.304Z,9.20
2018-04-26T23:32:04.511Z,9.20
2018-04-26T23:34:31.476Z,9.20
2018-04-26T23:36:57.701Z,9.20
2018-04-26T23:39:23.949Z,9.20
2018-04-26T23:41:50.164Z,9.10
2018-04-26T23:44:16.462Z,9.10
2018-04-26T23:46:43.429Z,9.10
2018-04-26T23:49:09.737Z,9.10
2018-04-26T23:51:36.701Z,9.10
2018-04-26T23:54:03.039Z,9.10
2018-04-26T23:56:29.261Z,9.00
2018-04-26T23:58:55.510Z,8.90
